sensor_id;sensor_type;location;lat;lon;timestamp;temperature;humidity
50738;DHT22;36703;48.154;17.126;2023-11-18T00:02:16;10.80;51.10
50738;DHT22;36703;48.154;17.126;2023-11-18T00:06:18;10.70;51.00
50738;DHT22;36703;48.154;17.126;2023-11-18T00:10:20;10.70;51.00
50738;DHT22;36703;48.154;17.126;2023-11-18T00:14:22;10.90;51.10
50738;DHT22;36703;48.154;17.126;2023-11-18T00:18:23;10.80;50.90
50738;DHT22;36703;48.154;17.126;2023-11-18T00:22:25;10.70;51.10
50738;DHT22;36703;48.154;17.126;2023-11-18T00:26:29;10.70;50.90
50738;DHT22;36703;48.154;17.126;2023-11-18T00:30:34;11.00;51.20
50738;DHT22;36703;48.154;17.126;2023-11-18T00:34:36;10.80;51.00
50738;DHT22;36703;48.154;17.126;2023-11-18T00:38:37;10.80;51.00
50738;DHT22;36703;48.154;17.126;2023-11-18T00:42:40;10.70;50.90
50738;DHT22;36703;48.154;17.126;2023-11-18T00:46:42;10.70;51.20
50738;DHT22;36703;48.154;17.126;2023-11-18T00:50:44;10.70;50.80
50738;DHT22;36703;48.154;17.126;2023-11-18T00:54:46;10.70;50.90
50738;DHT22;36703;48.154;17.126;2023-11-18T00:58:48;10.70;50.70
50738;DHT22;36703;48.154;17.126;2023-11-18T01:02:50;10.70;50.60
50738;DHT22;36703;48.154;17.126;2023-11-18T01:06:52;10.70;50.70
50738;DHT22;36703;48.154;17.126;2023-11-18T01:10:53;10.70;50.60
50738;DHT22;36703;48.154;17.126;2023-11-18T01:14:55;11.00;50.80
50738;DHT22;36703;48.154;17.126;2023-11-18T01:18:57;10.70;50.70
50738;DHT22;36703;48.154;17.126;2023-11-18T01:22:58;10.70;50.70
50738;DHT22;36703;48.154;17.126;2023-11-18T01:27:00;11.00;50.90
50738;DHT22;36703;48.154;17.126;2023-11-18T01:31:03;10.60;50.60
50738;DHT22;36703;48.154;17.126;2023-11-18T01:35:05;10.60;50.60
50738;DHT22;36703;48.154;17.126;2023-11-18T01:39:09;10.60;50.70
50738;DHT22;36703;48.154;17.126;2023-11-18T01:43:11;10.60;50.90
50738;DHT22;36703;48.154;17.126;2023-11-18T01:47:15;10.60;51.00
50738;DHT22;36703;48.154;17.126;2023-11-18T01:51:17;10.50;51.20
50738;DHT22;36703;48.154;17.126;2023-11-18T01:55:21;10.60;50.80
50738;DHT22;36703;48.154;17.126;2023-11-18T01:59:22;10.40;50.60
50738;DHT22;36703;48.154;17.126;2023-11-18T02:03:24;10.50;50.60
50738;DHT22;36703;48.154;17.126;2023-11-18T02:07:29;10.60;50.70
50738;DHT22;36703;48.154;17.126;2023-11-18T02:16:07;10.40;50.60
50738;DHT22;36703;48.154;17.126;2023-11-18T02:20:10;10.50;50.80
50738;DHT22;36703;48.154;17.126;2023-11-18T02:24:27;10.40;50.80
50738;DHT22;36703;48.154;17.126;2023-11-18T02:28:32;10.40;50.90
50738;DHT22;36703;48.154;17.126;2023-11-18T02:32:37;10.60;51.10
50738;DHT22;36703;48.154;17.126;2023-11-18T02:36:48;10.40;50.60
50738;DHT22;36703;48.154;17.126;2023-11-18T02:40:52;10.40;50.00
50738;DHT22;36703;48.154;17.126;2023-11-18T02:44:58;10.30;49.90
50738;DHT22;36703;48.154;17.126;2023-11-18T02:49:00;10.30;50.00
50738;DHT22;36703;48.154;17.126;2023-11-18T02:53:02;10.30;50.20
50738;DHT22;36703;48.154;17.126;2023-11-18T02:57:04;10.50;50.30
50738;DHT22;36703;48.154;17.126;2023-11-18T03:01:05;10.20;50.00
50738;DHT22;36703;48.154;17.126;2023-11-18T03:05:08;10.20;50.10
50738;DHT22;36703;48.154;17.126;2023-11-18T03:09:12;10.20;50.10
50738;DHT22;36703;48.154;17.126;2023-11-18T03:13:15;10.20;50.20
50738;DHT22;36703;48.154;17.126;2023-11-18T03:17:16;10.10;50.20
50738;DHT22;36703;48.154;17.126;2023-11-18T03:21:17;10.20;50.40
50738;DHT22;36703;48.154;17.126;2023-11-18T03:25:22;10.50;50.50
50738;DHT22;36703;48.154;17.126;2023-11-18T03:29:23;10.10;50.30
50738;DHT22;36703;48.154;17.126;2023-11-18T03:33:25;10.10;50.50
50738;DHT22;36703;48.154;17.126;2023-11-18T03:37:26;10.20;50.40
50738;DHT22;36703;48.154;17.126;2023-11-18T03:41:28;10.20;50.30
50738;DHT22;36703;48.154;17.126;2023-11-18T03:45:30;10.20;50.30
50738;DHT22;36703;48.154;17.126;2023-11-18T03:49:32;10.10;50.30
50738;DHT22;36703;48.154;17.126;2023-11-18T03:53:33;10.30;50.30
50738;DHT22;36703;48.154;17.126;2023-11-18T03:57:35;10.20;50.30
50738;DHT22;36703;48.154;17.126;2023-11-18T04:01:36;10.30;50.40
50738;DHT22;36703;48.154;17.126;2023-11-18T04:05:39;10.20;50.40
50738;DHT22;36703;48.154;17.126;2023-11-18T04:09:40;10.20;50.50
50738;DHT22;36703;48.154;17.126;2023-11-18T04:13:45;10.10;50.40
50738;DHT22;36703;48.154;17.126;2023-11-18T04:17:46;10.20;50.60
50738;DHT22;36703;48.154;17.126;2023-11-18T04:21:48;10.30;50.60
50738;DHT22;36703;48.154;17.126;2023-11-18T04:25:50;10.10;50.50
50738;DHT22;36703;48.154;17.126;2023-11-18T04:29:52;10.10;50.50
50738;DHT22;36703;48.154;17.126;2023-11-18T04:33:54;10.30;50.60
50738;DHT22;36703;48.154;17.126;2023-11-18T04:37:57;10.10;50.50
50738;DHT22;36703;48.154;17.126;2023-11-18T04:41:59;10.20;50.70
50738;DHT22;36703;48.154;17.126;2023-11-18T04:46:02;10.30;50.70
50738;DHT22;36703;48.154;17.126;2023-11-18T04:50:04;10.10;50.70
50738;DHT22;36703;48.154;17.126;2023-11-18T04:54:06;10.00;50.60
50738;DHT22;36703;48.154;17.126;2023-11-18T04:58:09;10.00;50.70
50738;DHT22;36703;48.154;17.126;2023-11-18T05:02:10;10.10;50.80
50738;DHT22;36703;48.154;17.126;2023-11-18T05:06:12;10.10;50.80
50738;DHT22;36703;48.154;17.126;2023-11-18T05:10:14;10.20;50.80
50738;DHT22;36703;48.154;17.126;2023-11-18T05:14:15;10.00;50.70
50738;DHT22;36703;48.154;17.126;2023-11-18T05:18:18;10.40;51.10
50738;DHT22;36703;48.154;17.126;2023-11-18T05:22:19;10.40;51.20
50738;DHT22;36703;48.154;17.126;2023-11-18T05:26:24;10.00;50.90
50738;DHT22;36703;48.154;17.126;2023-11-18T05:30:25;10.10;51.10
50738;DHT22;36703;48.154;17.126;2023-11-18T05:34:27;9.90;51.00
50738;DHT22;36703;48.154;17.126;2023-11-18T05:38:28;10.00;51.10
50738;DHT22;36703;48.154;17.126;2023-11-18T05:42:34;9.90;51.10
50738;DHT22;36703;48.154;17.126;2023-11-18T05:46:38;9.90;51.10
50738;DHT22;36703;48.154;17.126;2023-11-18T05:50:41;10.00;51.30
50738;DHT22;36703;48.154;17.126;2023-11-18T05:54:44;9.90;51.50
50738;DHT22;36703;48.154;17.126;2023-11-18T05:58:45;10.10;51.60
50738;DHT22;36703;48.154;17.126;2023-11-18T06:02:47;9.80;51.70
50738;DHT22;36703;48.154;17.126;2023-11-18T06:06:48;9.80;51.80
50738;DHT22;36703;48.154;17.126;2023-11-18T06:10:50;9.80;51.90
50738;DHT22;36703;48.154;17.126;2023-11-18T06:14:58;10.40;52.20
50738;DHT22;36703;48.154;17.126;2023-11-18T06:18:59;9.70;51.90
50738;DHT22;36703;48.154;17.126;2023-11-18T06:23:01;9.70;52.10
50738;DHT22;36703;48.154;17.126;2023-11-18T06:27:03;9.80;52.20
50738;DHT22;36703;48.154;17.126;2023-11-18T06:31:04;9.70;52.30
50738;DHT22;36703;48.154;17.126;2023-11-18T06:35:10;9.70;52.00
50738;DHT22;36703;48.154;17.126;2023-11-18T06:39:12;9.70;52.40
50738;DHT22;36703;48.154;17.126;2023-11-18T06:43:14;9.70;52.40
50738;DHT22;36703;48.154;17.126;2023-11-18T06:47:17;9.90;52.50
50738;DHT22;36703;48.154;17.126;2023-11-18T06:51:25;10.10;52.50
50738;DHT22;36703;48.154;17.126;2023-11-18T06:55:28;10.30;52.40
50738;DHT22;36703;48.154;17.126;2023-11-18T06:59:30;10.10;52.30
50738;DHT22;36703;48.154;17.126;2023-11-18T07:03:32;10.10;52.00
50738;DHT22;36703;48.154;17.126;2023-11-18T07:07:34;10.30;51.90
50738;DHT22;36703;48.154;17.126;2023-11-18T07:11:35;10.40;51.80
50738;DHT22;36703;48.154;17.126;2023-11-18T07:15:36;10.40;51.70
50738;DHT22;36703;48.154;17.126;2023-11-18T07:19:38;10.90;51.80
50738;DHT22;36703;48.154;17.126;2023-11-18T07:23:41;10.60;51.50
50738;DHT22;36703;48.154;17.126;2023-11-18T07:27:43;11.00;51.50
50738;DHT22;36703;48.154;17.126;2023-11-18T07:31:45;11.00;51.50
50738;DHT22;36703;48.154;17.126;2023-11-18T07:35:48;11.00;51.30
50738;DHT22;36703;48.154;17.126;2023-11-18T07:39:49;10.90;51.00
50738;DHT22;36703;48.154;17.126;2023-11-18T07:43:51;11.20;51.00
50738;DHT22;36703;48.154;17.126;2023-11-18T07:47:55;11.20;50.70
50738;DHT22;36703;48.154;17.126;2023-11-18T07:51:57;11.60;50.90
50738;DHT22;36703;48.154;17.126;2023-11-18T07:55:59;11.70;50.80
50738;DHT22;36703;48.154;17.126;2023-11-18T08:00:03;11.50;50.50
50738;DHT22;36703;48.154;17.126;2023-11-18T08:04:14;11.50;50.30
50738;DHT22;36703;48.154;17.126;2023-11-18T08:08:16;11.90;50.30
50738;DHT22;36703;48.154;17.126;2023-11-18T08:12:18;12.00;50.00
50738;DHT22;36703;48.154;17.126;2023-11-18T08:16:19;12.00;49.80
50738;DHT22;36703;48.154;17.126;2023-11-18T08:20:23;12.20;49.60
50738;DHT22;36703;48.154;17.126;2023-11-18T08:24:26;12.30;49.30
50738;DHT22;36703;48.154;17.126;2023-11-18T08:28:28;12.60;49.20
50738;DHT22;36703;48.154;17.126;2023-11-18T08:32:29;12.60;48.70
50738;DHT22;36703;48.154;17.126;2023-11-18T08:36:31;12.80;48.40
50738;DHT22;36703;48.154;17.126;2023-11-18T08:40:33;12.90;48.00
50738;DHT22;36703;48.154;17.126;2023-11-18T08:44:35;13.10;47.50
50738;DHT22;36703;48.154;17.126;2023-11-18T08:48:39;13.20;47.20
50738;DHT22;36703;48.154;17.126;2023-11-18T08:52:41;13.30;46.90
50738;DHT22;36703;48.154;17.126;2023-11-18T08:56:48;13.50;45.90
50738;DHT22;36703;48.154;17.126;2023-11-18T09:00:54;13.70;45.60
50738;DHT22;36703;48.154;17.126;2023-11-18T09:04:57;13.80;45.10
50738;DHT22;36703;48.154;17.126;2023-11-18T09:08:59;14.00;44.90
50738;DHT22;36703;48.154;17.126;2023-11-18T09:13:01;14.10;44.40
50738;DHT22;36703;48.154;17.126;2023-11-18T09:17:05;14.10;44.20
50738;DHT22;36703;48.154;17.126;2023-11-18T09:21:07;14.00;44.10
50738;DHT22;36703;48.154;17.126;2023-11-18T09:25:15;14.10;44.10
50738;DHT22;36703;48.154;17.126;2023-11-18T09:29:17;14.20;44.00
50738;DHT22;36703;48.154;17.126;2023-11-18T09:33:26;14.10;43.70
50738;DHT22;36703;48.154;17.126;2023-11-18T09:37:33;13.90;43.80
50738;DHT22;36703;48.154;17.126;2023-11-18T09:41:36;13.60;44.00
50738;DHT22;36703;48.154;17.126;2023-11-18T09:45:37;13.40;44.10
50738;DHT22;36703;48.154;17.126;2023-11-18T09:49:44;13.50;44.10
50738;DHT22;36703;48.154;17.126;2023-11-18T09:53:51;13.40;44.00
50738;DHT22;36703;48.154;17.126;2023-11-18T09:57:58;13.40;43.80
50738;DHT22;36703;48.154;17.126;2023-11-18T10:02:05;13.60;43.90
50738;DHT22;36703;48.154;17.126;2023-11-18T10:06:08;13.40;43.50
50738;DHT22;36703;48.154;17.126;2023-11-18T10:10:10;13.50;43.80
50738;DHT22;36703;48.154;17.126;2023-11-18T10:14:18;13.60;43.40
50738;DHT22;36703;48.154;17.126;2023-11-18T10:18:21;13.90;43.30
50738;DHT22;36703;48.154;17.126;2023-11-18T10:22:27;14.40;43.00
50738;DHT22;36703;48.154;17.126;2023-11-18T10:26:31;14.70;45.70
50738;DHT22;36703;48.154;17.126;2023-11-18T10:30:42;15.00;45.90
50738;DHT22;36703;48.154;17.126;2023-11-18T10:34:48;15.00;43.70
50738;DHT22;36703;48.154;17.126;2023-11-18T10:38:52;14.80;43.70
50738;DHT22;36703;48.154;17.126;2023-11-18T10:42:57;14.80;43.60
50738;DHT22;36703;48.154;17.126;2023-11-18T10:46:59;14.80;43.40
50738;DHT22;36703;48.154;17.126;2023-11-18T10:51:01;15.00;43.20
50738;DHT22;36703;48.154;17.126;2023-11-18T10:55:03;15.30;49.50
50738;DHT22;36703;48.154;17.126;2023-11-18T10:59:12;15.60;48.10
50738;DHT22;36703;48.154;17.126;2023-11-18T11:03:20;15.80;44.40
50738;DHT22;36703;48.154;17.126;2023-11-18T11:07:25;16.00;43.10
50738;DHT22;36703;48.154;17.126;2023-11-18T11:11:35;16.20;43.90
50738;DHT22;36703;48.154;17.126;2023-11-18T11:15:42;16.40;42.90
50738;DHT22;36703;48.154;17.126;2023-11-18T11:19:53;16.60;59.70
50738;DHT22;36703;48.154;17.126;2023-11-18T11:24:06;16.70;43.40
50738;DHT22;36703;48.154;17.126;2023-11-18T11:28:18;16.70;43.00
50738;DHT22;36703;48.154;17.126;2023-11-18T11:32:35;17.00;53.30
50738;DHT22;36703;48.154;17.126;2023-11-18T11:36:46;17.10;46.40
50738;DHT22;36703;48.154;17.126;2023-11-18T11:44:56;17.30;67.60
50738;DHT22;36703;48.154;17.126;2023-11-18T11:57:27;17.50;67.10
50738;DHT22;36703;48.154;17.126;2023-11-18T12:01:39;17.70;55.70
50738;DHT22;36703;48.154;17.126;2023-11-18T12:05:48;17.20;50.10
50738;DHT22;36703;48.154;17.126;2023-11-18T12:09:57;17.80;50.20
50738;DHT22;36703;48.154;17.126;2023-11-18T12:18:33;18.10;40.40
50738;DHT22;36703;48.154;17.126;2023-11-18T12:23:02;18.20;38.80
50738;DHT22;36703;48.154;17.126;2023-11-18T12:27:43;18.30;38.60
50738;DHT22;36703;48.154;17.126;2023-11-18T12:31:47;18.10;38.40
50738;DHT22;36703;48.154;17.126;2023-11-18T12:40:05;18.00;38.40
50738;DHT22;36703;48.154;17.126;2023-11-18T12:49:16;17.50;38.80
50738;DHT22;36703;48.154;17.126;2023-11-18T12:53:23;17.50;39.60
50738;DHT22;36703;48.154;17.126;2023-11-18T12:57:29;17.50;39.00
50738;DHT22;36703;48.154;17.126;2023-11-18T13:01:39;17.40;39.00
50738;DHT22;36703;48.154;17.126;2023-11-18T13:05:43;17.40;39.10
50738;DHT22;36703;48.154;17.126;2023-11-18T13:09:45;17.50;39.20
50738;DHT22;36703;48.154;17.126;2023-11-18T13:13:47;17.40;39.20
50738;DHT22;36703;48.154;17.126;2023-11-18T13:18:01;17.30;39.40
50738;DHT22;36703;48.154;17.126;2023-11-18T13:22:13;17.20;39.30
50738;DHT22;36703;48.154;17.126;2023-11-18T13:26:15;17.30;39.40
50738;DHT22;36703;48.154;17.126;2023-11-18T13:30:18;17.20;39.50
50738;DHT22;36703;48.154;17.126;2023-11-18T13:34:22;17.10;39.50
50738;DHT22;36703;48.154;17.126;2023-11-18T13:38:24;17.00;39.60
50738;DHT22;36703;48.154;17.126;2023-11-18T13:42:26;17.00;39.70
50738;DHT22;36703;48.154;17.126;2023-11-18T13:46:32;16.80;39.80
50738;DHT22;36703;48.154;17.126;2023-11-18T13:50:34;16.70;40.20
50738;DHT22;36703;48.154;17.126;2023-11-18T13:54:39;16.70;40.50
50738;DHT22;36703;48.154;17.126;2023-11-18T13:58:44;16.60;40.30
50738;DHT22;36703;48.154;17.126;2023-11-18T14:02:46;16.50;40.40
50738;DHT22;36703;48.154;17.126;2023-11-18T14:06:53;16.40;40.60
50738;DHT22;36703;48.154;17.126;2023-11-18T14:10:57;16.40;40.70
50738;DHT22;36703;48.154;17.126;2023-11-18T14:14:59;16.20;40.80
50738;DHT22;36703;48.154;17.126;2023-11-18T14:19:00;16.00;41.00
50738;DHT22;36703;48.154;17.126;2023-11-18T14:23:04;15.90;41.20
50738;DHT22;36703;48.154;17.126;2023-11-18T14:27:05;15.80;41.20
50738;DHT22;36703;48.154;17.126;2023-11-18T14:31:08;15.70;41.20
50738;DHT22;36703;48.154;17.126;2023-11-18T14:35:11;15.50;41.20
50738;DHT22;36703;48.154;17.126;2023-11-18T14:39:12;15.30;41.30
50738;DHT22;36703;48.154;17.126;2023-11-18T14:43:19;15.10;41.20
50738;DHT22;36703;48.154;17.126;2023-11-18T14:47:21;14.90;41.20
50738;DHT22;36703;48.154;17.126;2023-11-18T14:51:22;14.70;41.30
50738;DHT22;36703;48.154;17.126;2023-11-18T14:55:28;14.60;41.50
50738;DHT22;36703;48.154;17.126;2023-11-18T14:59:30;14.50;41.60
50738;DHT22;36703;48.154;17.126;2023-11-18T15:03:33;14.40;41.80
50738;DHT22;36703;48.154;17.126;2023-11-18T15:07:36;14.20;41.40
50738;DHT22;36703;48.154;17.126;2023-11-18T15:11:37;14.00;42.70
50738;DHT22;36703;48.154;17.126;2023-11-18T15:15:39;13.90;42.90
50738;DHT22;36703;48.154;17.126;2023-11-18T15:19:40;13.90;43.10
50738;DHT22;36703;48.154;17.126;2023-11-18T15:23:42;13.80;43.90
50738;DHT22;36703;48.154;17.126;2023-11-18T15:27:44;13.70;46.30
50738;DHT22;36703;48.154;17.126;2023-11-18T15:31:47;13.50;50.40
50738;DHT22;36703;48.154;17.126;2023-11-18T15:35:48;13.40;48.30
50738;DHT22;36703;48.154;17.126;2023-11-18T15:39:50;13.50;48.30
50738;DHT22;36703;48.154;17.126;2023-11-18T15:43:51;13.50;48.00
50738;DHT22;36703;48.154;17.126;2023-11-18T15:47:53;13.40;48.00
50738;DHT22;36703;48.154;17.126;2023-11-18T15:51:55;13.30;60.40
50738;DHT22;36703;48.154;17.126;2023-11-18T15:55:57;13.10;51.80
50738;DHT22;36703;48.154;17.126;2023-11-18T15:59:58;13.00;49.10
50738;DHT22;36703;48.154;17.126;2023-11-18T16:04:00;12.50;48.70
50738;DHT22;36703;48.154;17.126;2023-11-18T16:08:02;12.90;49.50
50738;DHT22;36703;48.154;17.126;2023-11-18T16:12:05;12.80;50.30
50738;DHT22;36703;48.154;17.126;2023-11-18T16:20:10;12.50;78.40
50738;DHT22;36703;48.154;17.126;2023-11-18T16:24:16;12.60;61.40
50738;DHT22;36703;48.154;17.126;2023-11-18T16:28:17;12.60;55.20
50738;DHT22;36703;48.154;17.126;2023-11-18T16:32:19;12.60;52.70
50738;DHT22;36703;48.154;17.126;2023-11-18T16:36:21;12.70;51.80
50738;DHT22;36703;48.154;17.126;2023-11-18T16:40:26;12.60;51.20
50738;DHT22;36703;48.154;17.126;2023-11-18T16:44:28;12.60;50.90
50738;DHT22;36703;48.154;17.126;2023-11-18T16:48:29;12.50;55.60
50738;DHT22;36703;48.154;17.126;2023-11-18T16:56:33;12.20;68.00
50738;DHT22;36703;48.154;17.126;2023-11-18T17:00:35;12.10;48.40
50738;DHT22;36703;48.154;17.126;2023-11-18T17:04:38;12.10;49.00
50738;DHT22;36703;48.154;17.126;2023-11-18T17:08:41;12.10;49.50
50738;DHT22;36703;48.154;17.126;2023-11-18T17:12:44;12.20;49.50
50738;DHT22;36703;48.154;17.126;2023-11-18T17:16:48;11.90;49.70
50738;DHT22;36703;48.154;17.126;2023-11-18T17:20:49;12.00;49.90
50738;DHT22;36703;48.154;17.126;2023-11-18T17:24:51;12.00;49.80
50738;DHT22;36703;48.154;17.126;2023-11-18T17:28:52;12.00;49.60
50738;DHT22;36703;48.154;17.126;2023-11-18T17:32:54;12.00;49.60
50738;DHT22;36703;48.154;17.126;2023-11-18T17:36:56;12.00;49.60
50738;DHT22;36703;48.154;17.126;2023-11-18T17:40:58;12.10;49.60
50738;DHT22;36703;48.154;17.126;2023-11-18T17:44:59;12.30;49.60
50738;DHT22;36703;48.154;17.126;2023-11-18T17:49:06;12.20;49.50
50738;DHT22;36703;48.154;17.126;2023-11-18T17:53:07;12.10;49.70
50738;DHT22;36703;48.154;17.126;2023-11-18T17:57:10;12.10;49.50
50738;DHT22;36703;48.154;17.126;2023-11-18T18:01:12;12.20;49.60
50738;DHT22;36703;48.154;17.126;2023-11-18T18:05:13;12.30;49.70
50738;DHT22;36703;48.154;17.126;2023-11-18T18:09:15;12.20;49.70
50738;DHT22;36703;48.154;17.126;2023-11-18T18:13:17;12.30;49.70
50738;DHT22;36703;48.154;17.126;2023-11-18T18:17:19;12.20;49.70
50738;DHT22;36703;48.154;17.126;2023-11-18T18:21:21;12.10;49.80
50738;DHT22;36703;48.154;17.126;2023-11-18T18:25:22;12.30;50.10
50738;DHT22;36703;48.154;17.126;2023-11-18T18:29:24;11.90;50.00
50738;DHT22;36703;48.154;17.126;2023-11-18T18:33:25;12.00;50.10
50738;DHT22;36703;48.154;17.126;2023-11-18T18:37:28;11.80;49.90
50738;DHT22;36703;48.154;17.126;2023-11-18T18:41:29;11.90;50.10
50738;DHT22;36703;48.154;17.126;2023-11-18T18:45:31;12.10;50.20
50738;DHT22;36703;48.154;17.126;2023-11-18T18:49:32;12.10;50.10
50738;DHT22;36703;48.154;17.126;2023-11-18T18:53:34;12.30;50.10
50738;DHT22;36703;48.154;17.126;2023-11-18T18:57:36;11.90;49.80
50738;DHT22;36703;48.154;17.126;2023-11-18T19:01:39;12.10;49.90
50738;DHT22;36703;48.154;17.126;2023-11-18T19:05:41;11.90;49.90
50738;DHT22;36703;48.154;17.126;2023-11-18T19:09:42;12.20;50.10
50738;DHT22;36703;48.154;17.126;2023-11-18T19:13:44;11.90;50.10
50738;DHT22;36703;48.154;17.126;2023-11-18T19:17:45;12.00;50.30
50738;DHT22;36703;48.154;17.126;2023-11-18T19:21:47;11.80;50.00
50738;DHT22;36703;48.154;17.126;2023-11-18T19:25:51;11.60;50.50
50738;DHT22;36703;48.154;17.126;2023-11-18T19:29:53;11.60;52.10
50738;DHT22;36703;48.154;17.126;2023-11-18T19:33:55;11.50;52.80
50738;DHT22;36703;48.154;17.126;2023-11-18T19:37:57;11.60;51.60
50738;DHT22;36703;48.154;17.126;2023-11-18T19:42:01;11.40;51.30
50738;DHT22;36703;48.154;17.126;2023-11-18T19:46:02;11.70;51.50
50738;DHT22;36703;48.154;17.126;2023-11-18T19:50:04;11.30;51.60
50738;DHT22;36703;48.154;17.126;2023-11-18T19:54:06;11.30;51.40
50738;DHT22;36703;48.154;17.126;2023-11-18T19:58:10;11.60;53.90
50738;DHT22;36703;48.154;17.126;2023-11-18T20:02:11;11.20;54.90
50738;DHT22;36703;48.154;17.126;2023-11-18T20:06:13;11.20;55.70
50738;DHT22;36703;48.154;17.126;2023-11-18T20:10:14;11.50;56.00
50738;DHT22;36703;48.154;17.126;2023-11-18T20:14:16;11.50;56.00
50738;DHT22;36703;48.154;17.126;2023-11-18T20:18:18;11.20;56.90
50738;DHT22;36703;48.154;17.126;2023-11-18T20:22:20;11.20;56.90
50738;DHT22;36703;48.154;17.126;2023-11-18T20:26:22;11.10;53.70
50738;DHT22;36703;48.154;17.126;2023-11-18T20:30:24;11.00;53.10
50738;DHT22;36703;48.154;17.126;2023-11-18T20:34:26;11.30;54.10
50738;DHT22;36703;48.154;17.126;2023-11-18T20:38:27;11.60;54.40
50738;DHT22;36703;48.154;17.126;2023-11-18T20:42:29;11.30;54.30
50738;DHT22;36703;48.154;17.126;2023-11-18T20:46:30;10.90;57.40
50738;DHT22;36703;48.154;17.126;2023-11-18T20:50:32;10.90;55.00
50738;DHT22;36703;48.154;17.126;2023-11-18T20:54:33;10.90;55.00
50738;DHT22;36703;48.154;17.126;2023-11-18T20:58:35;11.20;55.00
50738;DHT22;36703;48.154;17.126;2023-11-18T21:02:36;11.00;54.70
50738;DHT22;36703;48.154;17.126;2023-11-18T21:06:38;11.10;54.60
50738;DHT22;36703;48.154;17.126;2023-11-18T21:10:40;10.90;54.40
50738;DHT22;36703;48.154;17.126;2023-11-18T21:14:41;10.80;53.80
50738;DHT22;36703;48.154;17.126;2023-11-18T21:18:43;11.00;54.40
50738;DHT22;36703;48.154;17.126;2023-11-18T21:22:44;10.90;54.30
50738;DHT22;36703;48.154;17.126;2023-11-18T21:26:46;11.30;54.50
50738;DHT22;36703;48.154;17.126;2023-11-18T21:30:47;10.80;54.60
50738;DHT22;36703;48.154;17.126;2023-11-18T21:34:50;11.00;55.20
50738;DHT22;36703;48.154;17.126;2023-11-18T21:38:52;11.10;54.90
50738;DHT22;36703;48.154;17.126;2023-11-18T21:42:54;11.50;55.00
50738;DHT22;36703;48.154;17.126;2023-11-18T21:46:55;11.00;54.60
50738;DHT22;36703;48.154;17.126;2023-11-18T21:50:58;11.10;54.60
50738;DHT22;36703;48.154;17.126;2023-11-18T21:54:59;11.40;54.60
50738;DHT22;36703;48.154;17.126;2023-11-18T21:59:02;11.00;54.40
50738;DHT22;36703;48.154;17.126;2023-11-18T22:03:06;11.00;55.00
50738;DHT22;36703;48.154;17.126;2023-11-18T22:07:07;10.90;54.20
50738;DHT22;36703;48.154;17.126;2023-11-18T22:11:12;11.00;51.60
50738;DHT22;36703;48.154;17.126;2023-11-18T22:15:17;10.60;53.10
50738;DHT22;36703;48.154;17.126;2023-11-18T22:19:18;10.40;52.50
50738;DHT22;36703;48.154;17.126;2023-11-18T22:23:20;10.40;52.10
50738;DHT22;36703;48.154;17.126;2023-11-18T22:27:21;10.60;52.00
50738;DHT22;36703;48.154;17.126;2023-11-18T22:31:23;10.80;52.00
50738;DHT22;36703;48.154;17.126;2023-11-18T22:35:24;10.40;51.80
50738;DHT22;36703;48.154;17.126;2023-11-18T22:39:26;10.50;51.80
50738;DHT22;36703;48.154;17.126;2023-11-18T22:43:29;10.70;51.70
50738;DHT22;36703;48.154;17.126;2023-11-18T22:47:31;10.70;51.70
50738;DHT22;36703;48.154;17.126;2023-11-18T22:51:33;10.60;51.60
50738;DHT22;36703;48.154;17.126;2023-11-18T22:55:34;10.50;51.60
50738;DHT22;36703;48.154;17.126;2023-11-18T22:59:36;10.80;51.90
50738;DHT22;36703;48.154;17.126;2023-11-18T23:03:38;10.70;51.90
50738;DHT22;36703;48.154;17.126;2023-11-18T23:07:40;10.60;51.80
50738;DHT22;36703;48.154;17.126;2023-11-18T23:11:45;10.90;52.00
50738;DHT22;36703;48.154;17.126;2023-11-18T23:15:47;10.80;52.00
50738;DHT22;36703;48.154;17.126;2023-11-18T23:19:48;10.70;52.00
50738;DHT22;36703;48.154;17.126;2023-11-18T23:23:50;11.00;52.30
50738;DHT22;36703;48.154;17.126;2023-11-18T23:27:52;10.60;52.10
50738;DHT22;36703;48.154;17.126;2023-11-18T23:31:54;10.80;52.10
50738;DHT22;36703;48.154;17.126;2023-11-18T23:35:57;10.60;52.10
50738;DHT22;36703;48.154;17.126;2023-11-18T23:39:58;10.70;52.10
50738;DHT22;36703;48.154;17.126;2023-11-18T23:44:00;10.70;52.50
50738;DHT22;36703;48.154;17.126;2023-11-18T23:48:01;10.80;52.40
50738;DHT22;36703;48.154;17.126;2023-11-18T23:52:03;10.60;52.30
50738;DHT22;36703;48.154;17.126;2023-11-18T23:56:06;10.60;52.30
